KRBG/RBG METAR and TAF weather

Enter ICAO airport designator
Station Type Date Time Source
KRBG METAR 2019/10/23 08:42 UTC NOAA

KRBG 230842Z AUTO 01006KT 8SM BKN006 OVC011 14/13 A3038 RMK AO2 CIG 005V008 T01440128


Station Type Date Time Source
KRBG Decoded METAR 2019/10/23 08:42 UTC NOAA

ROSEBURG REGIONAL AIRPORT, OR, United States (KRBG) 43-14N 123-21W 154M
Oct 23, 2019 - 04:42 AM EDT / 2019.10.23 0842 UTC
Wind: from the N (010 degrees) at 7 MPH (6 KT):0
Visibility: 8 mile(s):0
Sky conditions: overcast
Temperature: 57.9 F (14.4 C)
Dew Point: 55.0 F (12.8 C)
Relative Humidity: 90%
Pressure (altimeter): 30.38 in. Hg (1028 hPa)
ob: KRBG 230842Z AUTO 01006KT 8SM BKN006 OVC011 14/13 A3038 RMK AO2 CIG 005V008 T01440128
cycle: 8

Station Type Date Time Source
KRBG TAF 2019/10/23 07:30 UTC NOAA

TAF
AMD KRBG 230728Z 2307/2406 00000KT P6SM BKN008 OVC025
FM230900 00000KT 4SM BR OVC006
FM231200 00000KT 1SM BR OVC003
FM231800 35003KT P6SM SKC

Example: see airport list